Time;durP1;ratioP1;P1;durP2;ratioP2;P2;SDS_P1;SDS_P2;PMS_P1;PMS_P2;Temp;Humidity;BMP_temperature;BMP_pressure;BME280_temperature;BME280_humidity;BME280_pressure;Samples;Min_cycle;Max_cycle;Signal;HPM_P1;HPM_P2
2024/03/19 00:00:45;;;;;;;7.43;2.03;;;21.50;57.80;;;;;;4952024;28;87196;-64
2024/03/19 00:03:12;;;;;;;1.77;0.98;;;21.50;57.60;;;;;;4968408;28;87851;-64
2024/03/19 00:05:38;;;;;;;1.27;0.70;;;21.50;57.60;;;;;;4951682;28;88197;-64
2024/03/19 00:08:04;;;;;;;2.30;0.80;;;21.50;57.70;;;;;;4962022;28;88966;-65
2024/03/19 00:10:29;;;;;;;1.40;0.95;;;21.50;57.60;;;;;;4954943;28;87281;-64
2024/03/19 00:12:55;;;;;;;1.63;1.00;;;21.50;57.80;;;;;;4951650;28;88248;-63
2024/03/19 00:15:21;;;;;;;1.23;0.52;;;21.50;57.80;;;;;;4950142;28;89492;-63
2024/03/19 00:17:46;;;;;;;2.92;0.90;;;21.50;57.60;;;;;;4952588;28;90039;-64
2024/03/19 00:20:12;;;;;;;2.08;0.98;;;21.50;57.80;;;;;;4952849;28;87064;-64
2024/03/19 00:22:39;;;;;;;1.23;0.90;;;21.50;57.80;;;;;;4953389;28;86898;-64
2024/03/19 00:25:06;;;;;;;1.70;0.90;;;21.50;57.80;;;;;;4952784;28;88934;-64
2024/03/19 00:27:32;;;;;;;3.47;1.23;;;21.50;57.80;;;;;;4950118;28;87225;-64
2024/03/19 00:30:00;;;;;;;1.95;0.95;;;21.40;57.70;;;;;;4953252;28;86993;-63
2024/03/19 00:32:30;;;;;;;2.13;0.88;;;21.40;57.80;;;;;;4951572;28;86908;-65
2024/03/19 00:34:57;;;;;;;2.40;1.15;;;21.40;57.70;;;;;;4950886;28;88608;-63
2024/03/19 00:37:23;;;;;;;1.13;1.02;;;21.40;57.80;;;;;;4947732;28;89265;-63
2024/03/19 00:39:50;;;;;;;1.38;1.02;;;21.40;57.60;;;;;;4950694;28;88068;-65
2024/03/19 00:42:16;;;;;;;2.40;1.30;;;21.40;57.60;;;;;;4946706;28;87805;-64
2024/03/19 00:44:42;;;;;;;1.35;0.80;;;21.40;57.70;;;;;;4952270;28;88979;-64
2024/03/19 00:47:09;;;;;;;1.02;0.77;;;21.40;57.50;;;;;;4952023;28;87832;-64
2024/03/19 00:49:36;;;;;;;1.95;1.15;;;21.40;57.70;;;;;;4949263;28;87413;-64
2024/03/19 00:52:03;;;;;;;1.45;0.98;;;21.40;57.60;;;;;;4949444;28;87231;-65
2024/03/19 00:54:29;;;;;;;1.10;0.80;;;21.30;57.60;;;;;;4950191;28;87655;-64
2024/03/19 00:56:55;;;;;;;3.03;1.10;;;21.30;57.70;;;;;;4954205;28;86937;-63
2024/03/19 00:59:21;;;;;;;2.35;1.30;;;21.30;57.60;;;;;;4952784;28;87651;-65
2024/03/19 01:01:48;;;;;;;1.58;1.08;;;21.30;57.70;;;;;;4951531;28;87477;-65
2024/03/19 01:04:14;;;;;;;1.45;1.02;;;21.30;57.60;;;;;;4960294;28;89583;-65
2024/03/19 01:06:41;;;;;;;0.95;0.68;;;21.30;57.60;;;;;;4957397;28;87869;-64
2024/03/19 01:09:14;;;;;;;2.65;1.00;;;21.30;57.60;;;;;;4951478;28;87680;-64
2024/03/19 01:11:43;;;;;;;1.50;0.68;;;21.30;57.50;;;;;;4950406;28;87849;-64
2024/03/19 01:14:10;;;;;;;2.83;1.00;;;21.30;57.40;;;;;;4949120;28;89069;-64
2024/03/19 01:16:36;;;;;;;3.47;1.30;;;21.30;57.40;;;;;;4951909;28;88309;-64
2024/03/19 01:19:03;;;;;;;0.85;0.75;;;21.30;57.50;;;;;;4951811;28;87731;-64
2024/03/19 01:21:29;;;;;;;2.15;1.02;;;21.30;57.40;;;;;;4951606;28;86193;-64
2024/03/19 01:23:56;;;;;;;1.58;1.05;;;21.30;57.50;;;;;;4950880;28;87819;-64
2024/03/19 01:26:23;;;;;;;1.60;1.05;;;21.30;57.60;;;;;;4950497;28;89639;-64
2024/03/19 01:28:49;;;;;;;1.30;1.20;;;21.30;57.50;;;;;;4950494;28;88310;-63
2024/03/19 01:31:15;;;;;;;2.03;1.13;;;21.30;57.30;;;;;;4950800;28;87385;-63
2024/03/19 01:33:41;;;;;;;1.33;0.75;;;21.30;57.40;;;;;;4946052;28;88420;-67
2024/03/19 01:36:08;;;;;;;0.90;0.70;;;21.20;57.30;;;;;;4950681;28;87894;-64
2024/03/19 01:38:34;;;;;;;0.68;0.57;;;21.20;57.30;;;;;;4953004;28;87557;-64
2024/03/19 01:40:59;;;;;;;1.15;0.80;;;21.20;57.40;;;;;;4951700;28;87344;-64
2024/03/19 01:43:25;;;;;;;1.83;1.20;;;21.20;57.30;;;;;;4951472;28;87821;-64
2024/03/19 01:46:14;;;;;;;2.42;1.02;;;21.20;57.30;;;;;;4950525;28;88162;-65
2024/03/19 01:48:40;;;;;;;2.33;1.10;;;21.20;57.40;;;;;;4947534;28;87561;-65
2024/03/19 01:51:08;;;;;;;1.38;0.90;;;21.20;57.30;;;;;;4945199;28;87278;-63
2024/03/19 01:53:34;;;;;;;1.30;1.00;;;21.20;57.30;;;;;;4953206;28;88331;-65
2024/03/19 01:56:00;;;;;;;1.42;0.88;;;21.20;57.40;;;;;;4950881;28;88359;-64
2024/03/19 01:58:28;;;;;;;2.30;0.85;;;21.20;57.30;;;;;;4949081;28;87323;-64
2024/03/19 02:00:54;;;;;;;1.05;0.70;;;21.20;57.10;;;;;;4961826;28;87092;-63
2024/03/19 02:03:22;;;;;;;0.85;0.70;;;21.20;57.20;;;;;;4954650;28;87392;-64
2024/03/19 02:05:48;;;;;;;1.98;0.98;;;21.20;57.20;;;;;;4952633;28;88546;-64
2024/03/19 02:08:14;;;;;;;2.20;1.15;;;21.20;57.20;;;;;;4951523;28;87432;-64
2024/03/19 02:10:41;;;;;;;2.42;1.42;;;21.20;57.30;;;;;;4950174;28;86912;-64
2024/03/19 02:13:07;;;;;;;1.58;0.73;;;21.20;57.10;;;;;;4951756;28;87622;-65
2024/03/19 02:15:33;;;;;;;1.67;0.80;;;21.10;57.10;;;;;;4949757;28;89219;-64
2024/03/19 02:17:59;;;;;;;1.58;0.93;;;21.20;57.10;;;;;;4950739;28;88882;-64
2024/03/19 02:20:25;;;;;;;2.95;1.42;;;21.10;57.20;;;;;;4951335;28;88669;-64
2024/03/19 02:22:51;;;;;;;1.25;0.80;;;21.20;57.10;;;;;;4948533;28;88326;-63
2024/03/19 02:25:17;;;;;;;1.15;0.60;;;21.10;57.10;;;;;;4951408;28;87838;-64
2024/03/19 02:27:46;;;;;;;1.80;0.85;;;21.10;57.10;;;;;;4952298;28;87598;-64
2024/03/19 02:30:12;;;;;;;;;;;21.10;57.10;;;;;;4951783;28;87128;-64
2024/03/19 02:32:38;;;;;;;0.90;0.68;;;21.10;57.20;;;;;;4952084;28;90891;-64
2024/03/19 02:35:04;;;;;;;2.08;0.77;;;21.10;57.30;;;;;;4952069;28;88178;-64
2024/03/19 02:37:31;;;;;;;1.25;0.70;;;21.10;57.10;;;;;;4948396;28;87216;-65
2024/03/19 02:39:57;;;;;;;1.80;0.85;;;21.10;57.00;;;;;;4949776;28;87453;-64
2024/03/19 02:42:23;;;;;;;1.35;0.82;;;21.10;57.20;;;;;;4950768;28;88455;-64
2024/03/19 02:44:49;;;;;;;0.85;0.70;;;21.10;57.20;;;;;;4952140;28;88743;-64
2024/03/19 02:47:15;;;;;;;3.40;1.33;;;21.10;57.10;;;;;;4951150;28;87378;-64
2024/03/19 02:49:41;;;;;;;0.98;0.80;;;21.10;57.20;;;;;;4950562;28;87290;-65
2024/03/19 02:52:08;;;;;;;3.22;1.45;;;21.10;57.30;;;;;;4950979;28;88127;-64
2024/03/19 02:54:34;;;;;;;2.28;0.90;;;21.10;57.20;;;;;;4953444;28;87599;-63
2024/03/19 02:57:00;;;;;;;1.10;0.75;;;21.10;57.30;;;;;;4971055;28;87526;-65
2024/03/19 02:59:26;;;;;;;1.23;0.73;;;21.00;57.20;;;;;;4957802;28;86728;-63
2024/03/19 03:01:51;;;;;;;1.35;0.85;;;21.00;57.30;;;;;;4954221;28;87712;-65
2024/03/19 03:04:18;;;;;;;1.05;0.90;;;21.10;57.10;;;;;;4954371;28;87369;-64
2024/03/19 03:06:44;;;;;;;1.92;1.00;;;21.10;57.20;;;;;;4954944;28;88456;-64
2024/03/19 03:09:09;;;;;;;1.55;0.80;;;21.00;57.30;;;;;;4954592;28;87243;-64
2024/03/19 03:11:37;;;;;;;1.15;0.70;;;21.00;57.10;;;;;;4955758;28;88762;-63
2024/03/19 03:14:03;;;;;;;1.88;0.75;;;21.00;57.00;;;;;;4953207;28;88308;-63
2024/03/19 03:16:29;;;;;;;0.90;0.70;;;21.00;57.10;;;;;;4953409;28;87740;-64
2024/03/19 03:18:55;;;;;;;1.90;0.82;;;21.00;57.00;;;;;;4953360;28;87789;-64
2024/03/19 03:21:20;;;;;;;1.02;0.77;;;21.00;57.00;;;;;;4952737;28;87354;-66
2024/03/19 03:23:46;;;;;;;1.48;0.73;;;21.00;57.00;;;;;;4953628;28;86778;-64
2024/03/19 03:26:12;;;;;;;1.15;0.70;;;21.00;56.90;;;;;;4953233;28;87002;-64
2024/03/19 03:28:38;;;;;;;1.08;0.88;;;21.00;57.00;;;;;;4954372;28;87169;-64
2024/03/19 03:31:04;;;;;;;0.60;0.60;;;21.00;57.00;;;;;;4947727;28;89578;-63
2024/03/19 03:33:30;;;;;;;1.40;0.88;;;21.00;57.10;;;;;;4954116;28;88796;-66
2024/03/19 03:35:58;;;;;;;1.67;0.90;;;21.00;57.20;;;;;;4954511;28;87484;-64
2024/03/19 03:38:24;;;;;;;1.50;0.73;;;21.00;57.10;;;;;;4952349;28;87715;-63
2024/03/19 03:40:54;;;;;;;1.27;0.80;;;21.00;57.20;;;;;;4953679;28;87572;-64
2024/03/19 03:43:21;;;;;;;3.90;1.73;;;20.90;57.00;;;;;;4970173;28;88806;-64
2024/03/19 03:45:48;;;;;;;1.45;0.68;;;20.90;56.90;;;;;;4970924;28;87355;-64
2024/03/19 03:48:13;;;;;;;2.33;1.15;;;20.90;57.20;;;;;;4972615;28;86971;-63
2024/03/19 03:50:40;;;;;;;0.90;0.68;;;20.90;57.10;;;;;;4972407;28;89070;-64
2024/03/19 03:53:05;;;;;;;0.70;0.70;;;20.90;57.10;;;;;;4968776;28;89234;-63
2024/03/19 03:55:32;;;;;;;1.30;0.70;;;21.00;57.20;;;;;;4958014;28;88596;-64
2024/03/19 03:57:58;;;;;;;1.98;1.05;;;20.90;57.10;;;;;;4952123;28;87661;-64
2024/03/19 04:00:25;;;;;;;1.35;0.60;;;20.90;57.10;;;;;;4951957;28;88788;-64
2024/03/19 04:02:51;;;;;;;1.20;0.90;;;21.00;57.20;;;;;;4952977;28;88542;-64
2024/03/19 04:05:18;;;;;;;1.17;0.80;;;20.90;57.10;;;;;;4949714;28;86842;-66
2024/03/19 04:07:44;;;;;;;3.00;1.00;;;21.00;57.10;;;;;;4952419;28;87312;-64
2024/03/19 04:10:12;;;;;;;0.82;0.70;;;20.90;57.00;;;;;;4952875;28;87457;-65
2024/03/19 04:12:42;;;;;;;1.60;0.90;;;20.90;57.00;;;;;;4968168;28;88348;-64
2024/03/19 04:15:09;;;;;;;1.73;0.90;;;20.90;57.00;;;;;;4957876;28;87443;-64
2024/03/19 04:17:35;;;;;;;2.38;1.30;;;20.90;57.10;;;;;;4967832;28;87241;-64
2024/03/19 04:20:05;;;;;;;0.88;0.80;;;20.90;57.00;;;;;;4953201;28;88490;-64
2024/03/19 04:22:35;;;;;;;0.95;0.80;;;20.90;57.00;;;;;;4952009;28;88751;-64
2024/03/19 04:25:02;;;;;;;1.63;0.95;;;20.90;57.10;;;;;;4949613;28;87464;-65
2024/03/19 04:27:28;;;;;;;1.98;1.48;;;20.90;57.10;;;;;;4950600;28;89163;-63
2024/03/19 04:29:56;;;;;;;1.48;0.70;;;20.90;57.10;;;;;;4953442;28;87768;-68
2024/03/19 04:32:21;;;;;;;1.48;0.70;;;20.90;57.10;;;;;;4950850;28;88108;-65
2024/03/19 04:34:47;;;;;;;1.60;1.17;;;20.80;57.00;;;;;;4952873;28;86933;-65
2024/03/19 04:37:13;;;;;;;2.53;1.00;;;20.90;57.10;;;;;;4952015;28;86405;-63
2024/03/19 04:39:41;;;;;;;1.02;0.60;;;20.90;57.10;;;;;;4950839;28;88542;-63
2024/03/19 04:42:17;;;;;;;1.10;0.50;;;20.80;57.20;;;;;;4949438;28;87937;-64
2024/03/19 04:44:43;;;;;;;1.38;0.80;;;20.90;57.00;;;;;;4953571;28;88284;-65
2024/03/19 04:47:10;;;;;;;2.85;0.63;;;20.90;57.10;;;;;;4951819;28;86954;-65
2024/03/19 04:49:37;;;;;;;1.77;1.02;;;20.90;57.10;;;;;;4963736;28;88136;-65
2024/03/19 04:52:03;;;;;;;2.15;1.00;;;20.80;57.00;;;;;;4953346;28;88087;-63
2024/03/19 04:54:29;;;;;;;1.42;0.80;;;20.80;57.10;;;;;;4946645;28;87261;-63
2024/03/19 04:56:56;;;;;;;2.05;1.02;;;20.80;57.00;;;;;;4952996;28;87394;-64
2024/03/19 04:59:22;;;;;;;1.23;0.80;;;20.80;57.70;;;;;;4955416;28;87448;-66
2024/03/19 05:01:47;;;;;;;1.08;0.80;;;20.80;57.20;;;;;;4947158;28;88102;-65
2024/03/19 05:04:17;;;;;;;1.25;0.70;;;20.80;57.10;;;;;;4949566;28;87293;-64
2024/03/19 05:06:43;;;;;;;2.38;0.70;;;20.80;57.10;;;;;;4952510;28;87934;-64
2024/03/19 05:09:09;;;;;;;1.17;0.82;;;20.80;57.10;;;;;;4950497;28;88414;-65
2024/03/19 05:11:38;;;;;;;1.67;0.88;;;20.80;57.00;;;;;;4952444;28;89256;-67
2024/03/19 05:14:05;;;;;;;1.42;0.70;;;20.80;57.00;;;;;;4945688;28;87425;-63
2024/03/19 05:16:31;;;;;;;1.85;1.00;;;20.80;57.00;;;;;;4949542;28;87484;-65
2024/03/19 05:18:57;;;;;;;1.20;1.08;;;20.80;57.00;;;;;;4946901;28;87845;-65
2024/03/19 05:21:24;;;;;;;1.05;0.90;;;20.80;57.10;;;;;;4939934;28;88507;-65
2024/03/19 05:23:52;;;;;;;1.08;0.98;;;20.80;57.10;;;;;;4965821;28;86881;-65
2024/03/19 05:26:21;;;;;;;1.25;0.70;;;20.80;57.10;;;;;;4946380;28;87027;-65
2024/03/19 05:28:48;;;;;;;1.02;0.88;;;20.80;57.10;;;;;;4950217;28;89135;-65
2024/03/19 05:31:24;;;;;;;1.38;0.93;;;20.70;57.00;;;;;;4946243;28;87120;-64
2024/03/19 05:33:51;;;;;;;1.63;0.90;;;20.70;57.70;;;;;;4944800;28;88310;-65
2024/03/19 05:36:19;;;;;;;1.92;0.85;;;20.70;57.00;;;;;;4948066;28;87281;-66
2024/03/19 05:38:48;;;;;;;2.10;1.00;;;20.70;57.00;;;;;;4934227;28;88452;-63
2024/03/19 05:41:19;;;;;;;1.60;0.90;;;20.70;57.00;;;;;;4960160;28;89877;-64
2024/03/19 05:43:48;;;;;;;1.08;0.80;;;20.70;57.20;;;;;;4950682;28;87384;-65
2024/03/19 05:46:14;;;;;;;3.20;1.20;;;20.70;57.20;;;;;;4944766;28;87504;-64
2024/03/19 05:48:40;;;;;;;1.42;0.82;;;20.70;57.20;;;;;;4946532;28;88770;-64
2024/03/19 05:51:12;;;;;;;2.05;1.05;;;20.70;57.20;;;;;;4949840;28;88329;-65
2024/03/19 05:53:40;;;;;;;0.70;0.70;;;20.70;57.10;;;;;;4949322;28;87255;-63
2024/03/19 05:56:09;;;;;;;1.00;0.80;;;20.70;57.20;;;;;;4946954;28;87899;-65
2024/03/19 05:58:36;;;;;;;1.15;0.88;;;20.70;57.20;;;;;;4947834;28;90252;-65
2024/03/19 06:01:03;;;;;;;1.38;1.15;;;20.70;57.10;;;;;;4948268;28;91656;-67
2024/03/19 06:03:33;;;;;;;1.38;0.75;;;20.80;57.00;;;;;;4950375;28;87743;-65
2024/03/19 06:06:08;;;;;;;0.88;0.60;;;20.70;57.40;;;;;;4966121;28;87452;-65
2024/03/19 06:08:39;;;;;;;6.70;0.85;;;20.80;57.80;;;;;;4952471;28;92778;-64
2024/03/19 06:11:09;;;;;;;2.97;0.85;;;20.80;57.80;;;;;;4951111;28;89341;-65
2024/03/19 06:13:35;;;;;;;0.77;0.70;;;20.80;57.90;;;;;;4953749;28;87499;-64
2024/03/19 06:16:01;;;;;;;2.60;1.30;;;20.80;58.00;;;;;;4970380;28;86933;-64
2024/03/19 06:18:28;;;;;;;2.08;1.10;;;20.80;58.00;;;;;;4964438;28;88401;-64
2024/03/19 06:20:54;;;;;;;2.85;1.00;;;20.80;58.00;;;;;;4969552;28;88621;-64
2024/03/19 06:23:21;;;;;;;1.33;0.77;;;20.80;58.10;;;;;;4968330;28;88089;-64
2024/03/19 06:25:46;;;;;;;1.25;0.75;;;20.80;58.20;;;;;;4968684;28;87529;-66
2024/03/19 06:28:12;;;;;;;0.90;0.80;;;20.70;58.00;;;;;;4972246;28;87581;-63
2024/03/19 06:30:40;;;;;;;0.50;0.50;;;20.80;58.00;;;;;;4971801;28;87549;-65
2024/03/19 06:33:12;;;;;;;3.70;0.85;;;20.80;58.10;;;;;;4973731;28;87496;-64
2024/03/19 06:35:42;;;;;;;1.08;0.90;;;20.80;58.10;;;;;;4973532;28;88235;-63
2024/03/19 06:38:09;;;;;;;1.00;0.95;;;20.80;58.10;;;;;;4953554;28;87859;-64
2024/03/19 06:40:35;;;;;;;1.25;0.63;;;20.80;58.00;;;;;;4966091;28;88262;-65
2024/03/19 06:43:01;;;;;;;2.08;0.95;;;20.80;58.00;;;;;;4967568;28;87556;-64
2024/03/19 06:45:29;;;;;;;2.30;0.70;;;20.80;58.10;;;;;;4944547;28;87675;-65
2024/03/19 06:47:58;;;;;;;2.10;1.10;;;20.80;58.00;;;;;;4966650;28;90225;-63
2024/03/19 06:50:25;;;;;;;0.80;0.80;;;20.80;57.30;;;;;;4946078;28;89856;-64
2024/03/19 06:52:55;;;;;;;1.50;0.65;;;20.80;57.50;;;;;;4953563;28;87218;-65
2024/03/19 06:55:22;;;;;;;1.15;0.77;;;20.80;57.70;;;;;;4933118;28;88011;-64
2024/03/19 06:57:49;;;;;;;1.10;0.80;;;20.80;57.60;;;;;;4940019;28;87732;-66
2024/03/19 07:00:22;;;;;;;0.98;0.90;;;20.80;57.70;;;;;;4952106;28;89325;-65
2024/03/19 07:02:49;;;;;;;1.40;0.93;;;20.80;57.50;;;;;;4936766;28;87029;-65
2024/03/19 07:05:15;;;;;;;1.77;0.80;;;20.80;57.30;;;;;;4946311;28;88152;-66
2024/03/19 07:07:41;;;;;;;1.20;0.88;;;20.80;57.10;;;;;;4950427;28;88587;-65
2024/03/19 07:10:10;;;;;;;1.42;0.73;;;20.90;57.40;;;;;;4951239;28;88069;-65
2024/03/19 07:12:39;;;;;;;1.48;0.77;;;20.90;57.20;;;;;;4949015;28;88032;-64
2024/03/19 07:15:10;;;;;;;1.15;0.80;;;21.00;57.20;;;;;;4964078;28;87054;-64
2024/03/19 07:17:39;;;;;;;2.45;0.80;;;21.00;57.00;;;;;;4952591;28;88742;-63
2024/03/19 07:20:09;;;;;;;;;;;21.10;56.90;;;;;;4952500;28;87849;-65
2024/03/19 07:22:45;;;;;;;1.80;1.00;;;21.10;56.80;;;;;;4952340;28;86849;-64
2024/03/19 07:25:12;;;;;;;2.45;1.05;;;21.10;57.00;;;;;;4954124;28;87620;-64
2024/03/19 07:27:40;;;;;;;1.40;0.55;;;21.10;57.10;;;;;;4951668;28;89593;-65
2024/03/19 07:30:11;;;;;;;1.90;0.88;;;21.10;57.20;;;;;;4952176;28;88173;-64
2024/03/19 07:32:39;;;;;;;1.10;0.80;;;21.10;57.20;;;;;;4953093;28;87604;-64
2024/03/19 07:35:07;;;;;;;2.10;0.90;;;21.10;56.90;;;;;;4947099;28;88346;-66
2024/03/19 07:37:34;;;;;;;2.25;1.13;;;21.10;57.20;;;;;;4949231;28;89601;-65
2024/03/19 07:40:05;;;;;;;1.73;0.90;;;21.10;57.00;;;;;;4962037;28;88598;-65
2024/03/19 07:42:33;;;;;;;1.13;0.70;;;21.10;57.00;;;;;;4935932;28;87654;-65
2024/03/19 07:45:00;;;;;;;2.35;0.82;;;21.10;56.80;;;;;;4951993;28;87439;-67
2024/03/19 07:47:29;;;;;;;2.15;0.98;;;21.00;57.00;;;;;;4944794;28;88668;-66
2024/03/19 07:49:58;;;;;;;2.60;0.98;;;21.00;56.90;;;;;;4945218;28;88577;-64
2024/03/19 07:52:24;;;;;;;2.13;1.10;;;21.00;57.00;;;;;;4948361;28;87018;-63
2024/03/19 07:54:50;;;;;;;1.33;0.77;;;21.00;56.90;;;;;;4947590;28;86510;-64
2024/03/19 07:57:18;;;;;;;2.03;1.02;;;21.00;57.10;;;;;;4948676;28;89822;-63
2024/03/19 07:59:45;;;;;;;4.82;1.75;;;21.00;57.10;;;;;;4953615;28;88195;-64
2024/03/19 08:02:11;;;;;;;4.13;1.05;;;21.00;57.30;;;;;;4935346;28;88590;-65
2024/03/19 08:04:38;;;;;;;3.95;1.80;;;21.10;57.50;;;;;;4951939;28;88207;-65
2024/03/19 08:07:05;;;;;;;5.68;2.25;;;21.10;57.50;;;;;;4959127;28;91745;-65
2024/03/19 08:09:32;;;;;;;9.45;2.67;;;21.20;57.50;;;;;;4950584;28;87893;-65
2024/03/19 08:12:03;;;;;;;14.98;3.00;;;21.20;57.10;;;;;;4952440;28;87178;-66
2024/03/19 08:14:29;;;;;;;7.97;2.53;;;21.10;57.10;;;;;;4953346;28;91814;-63
2024/03/19 08:16:58;;;;;;;8.00;3.05;;;21.10;57.20;;;;;;4951340;28;88538;-64
2024/03/19 08:19:25;;;;;;;19.10;3.73;;;21.10;57.30;;;;;;4941273;28;87268;-65
2024/03/19 08:21:52;;;;;;;12.43;3.47;;;21.10;57.20;;;;;;4945759;28;87045;-64
2024/03/19 08:24:18;;;;;;;8.48;2.45;;;21.00;57.20;;;;;;4945193;28;87581;-63
2024/03/19 08:26:44;;;;;;;11.65;3.42;;;21.00;57.30;;;;;;4971528;28;89563;-64
2024/03/19 08:29:12;;;;;;;12.23;2.42;;;21.00;57.20;;;;;;4967830;28;88395;-65
2024/03/19 08:31:40;;;;;;;12.70;3.22;;;20.90;57.20;;;;;;4966074;28;87013;-63
2024/03/19 08:34:07;;;;;;;8.90;2.77;;;21.00;57.20;;;;;;4958417;28;88057;-64
2024/03/19 08:36:32;;;;;;;15.40;3.63;;;20.90;57.30;;;;;;4956122;28;89275;-65
2024/03/19 08:38:59;;;;;;;11.50;3.13;;;20.90;57.40;;;;;;4951771;28;87333;-64
2024/03/19 08:41:25;;;;;;;7.97;3.05;;;20.90;57.30;;;;;;4950335;28;86947;-64
2024/03/19 08:43:53;;;;;;;15.10;3.75;;;21.00;57.40;;;;;;4953066;28;88365;-64
2024/03/19 08:46:19;;;;;;;11.15;3.83;;;20.90;57.40;;;;;;4950335;28;90011;-64
2024/03/19 08:48:46;;;;;;;15.02;3.88;;;21.00;58.10;;;;;;4951762;28;87450;-66
2024/03/19 08:51:12;;;;;;;14.60;3.45;;;20.90;57.30;;;;;;4953142;28;88198;-66
2024/03/19 08:53:39;;;;;;;9.80;3.13;;;20.90;57.30;;;;;;4967846;28;87733;-63
2024/03/19 08:56:06;;;;;;;10.07;3.15;;;20.90;57.20;;;;;;4950557;28;88079;-63
2024/03/19 08:58:32;;;;;;;15.75;3.75;;;20.80;57.10;;;;;;4951588;28;87470;-67
2024/03/19 09:00:57;;;;;;;10.93;3.60;;;20.90;57.30;;;;;;4951275;28;87480;-64
2024/03/19 09:03:23;;;;;;;4.88;2.00;;;20.80;57.20;;;;;;4952509;28;87184;-66
2024/03/19 09:06:00;;;;;;;15.80;3.72;;;20.90;57.40;;;;;;4953404;28;88113;-64
2024/03/19 09:08:26;;;;;;;8.45;2.70;;;20.90;57.30;;;;;;4948812;28;88300;-63
2024/03/19 09:10:53;;;;;;;16.27;2.80;;;20.80;57.20;;;;;;4943736;28;87339;-64
2024/03/19 09:13:20;;;;;;;10.73;3.00;;;20.90;57.20;;;;;;4953189;28;87271;-64
2024/03/19 09:15:46;;;;;;;15.60;3.50;;;20.90;57.30;;;;;;4950391;28;89671;-63
2024/03/19 09:18:13;;;;;;;11.07;3.33;;;20.90;57.10;;;;;;4951820;28;87974;-63
2024/03/19 09:20:38;;;;;;;15.85;4.72;;;20.90;57.20;;;;;;4953284;28;87547;-63
2024/03/19 09:23:04;;;;;;;11.60;3.05;;;20.90;57.30;;;;;;4951781;28;87502;-65
2024/03/19 09:25:30;;;;;;;10.77;2.63;;;20.90;57.20;;;;;;4947719;28;88488;-63
2024/03/19 09:27:57;;;;;;;12.82;3.47;;;20.90;57.10;;;;;;4950300;28;88329;-63
2024/03/19 09:30:28;;;;;;;9.95;3.55;;;20.90;57.00;;;;;;4974655;28;87129;-64
2024/03/19 09:32:55;;;;;;;11.32;3.03;;;20.90;57.10;;;;;;4959161;28;88056;-63
2024/03/19 09:35:21;;;;;;;5.50;2.10;;;20.90;57.20;;;;;;4950923;28;87535;-63
2024/03/19 09:37:47;;;;;;;9.82;2.80;;;20.90;57.10;;;;;;4951791;28;87883;-64
2024/03/19 09:40:16;;;;;;;10.07;2.72;;;20.80;57.20;;;;;;4949950;28;89149;-64
2024/03/19 09:42:42;;;;;;;9.38;2.95;;;20.80;57.30;;;;;;4949298;28;87581;-66
2024/03/19 09:45:28;;;;;;;11.43;3.05;;;20.80;57.30;;;;;;4939681;28;87578;-63
2024/03/19 09:47:55;;;;;;;6.43;2.40;;;20.80;57.20;;;;;;4965146;28;88300;-62
2024/03/19 09:50:24;;;;;;;9.00;2.92;;;20.80;57.10;;;;;;4965642;28;87852;-64
2024/03/19 09:52:52;;;;;;;8.90;2.30;;;20.90;57.30;;;;;;4946902;28;88159;-64
2024/03/19 09:55:19;;;;;;;8.27;3.03;;;20.80;57.20;;;;;;4947772;28;89072;-64
2024/03/19 09:57:46;;;;;;;10.57;3.60;;;20.90;57.30;;;;;;4946045;28;90015;-63
2024/03/19 10:00:32;;;;;;;7.95;2.63;;;20.90;57.20;;;;;;4946072;28;86930;-63
2024/03/19 10:02:59;;;;;;;6.90;2.70;;;20.90;57.20;;;;;;4956866;28;87574;-64
2024/03/19 10:05:25;;;;;;;8.60;2.90;;;20.90;57.00;;;;;;4948433;28;89100;-64
2024/03/19 10:07:53;;;;;;;5.40;2.50;;;20.90;57.10;;;;;;4947432;28;89983;-64
2024/03/19 10:10:20;;;;;;;6.22;2.30;;;20.90;57.10;;;;;;4952194;28;87141;-63
2024/03/19 10:12:46;;;;;;;9.15;2.80;;;20.90;57.10;;;;;;4955188;28;87579;-65
2024/03/19 10:15:23;;;;;;;8.85;3.70;;;20.90;57.20;;;;;;4954467;28;87894;-65
2024/03/19 10:17:49;;;;;;;9.93;2.97;;;20.90;57.10;;;;;;4956422;28;87905;-65
2024/03/19 10:20:16;;;;;;;9.02;3.03;;;21.00;57.90;;;;;;4953899;28;87373;-63
2024/03/19 10:22:45;;;;;;;14.85;4.03;;;21.00;57.30;;;;;;4953679;28;87593;-64
2024/03/19 10:25:15;;;;;;;7.47;2.47;;;20.90;57.10;;;;;;4966274;28;89859;-63
2024/03/19 10:27:49;;;;;;;8.10;3.17;;;21.00;57.30;;;;;;4970391;28;87674;-63
2024/03/19 10:30:17;;;;;;;10.50;2.28;;;21.00;57.30;;;;;;4931400;28;87965;-63
2024/03/19 10:32:44;;;;;;;8.65;2.60;;;20.90;57.10;;;;;;4955389;28;87301;-64
2024/03/19 10:35:19;;;;;;;14.70;2.63;;;21.00;57.20;;;;;;4948440;28;90546;-64
2024/03/19 10:37:53;;;;;;;10.43;2.65;;;21.10;57.10;;;;;;4949096;28;87829;-64
2024/03/19 10:40:21;;;;;;;7.85;3.20;;;21.30;57.00;;;;;;4952336;28;87264;-64
2024/03/19 10:42:48;;;;;;;12.63;2.88;;;21.50;56.80;;;;;;4952414;28;87581;-65
2024/03/19 10:45:19;;;;;;;7.80;2.80;;;21.70;56.50;;;;;;4954493;28;89055;-65
2024/03/19 10:47:49;;;;;;;17.65;3.88;;;21.80;56.00;;;;;;4955738;28;87922;-63
2024/03/19 10:50:17;;;;;;;5.30;1.77;;;22.00;56.00;;;;;;4953869;28;86947;-64
2024/03/19 10:53:01;;;;;;;8.13;2.20;;;21.90;55.60;;;;;;4949915;28;87072;-64
2024/03/19 10:55:29;;;;;;;6.78;2.40;;;21.90;55.70;;;;;;4954057;28;89138;-63
2024/03/19 10:58:00;;;;;;;15.00;3.53;;;21.90;55.70;;;;;;4955307;28;88286;-63
2024/03/19 11:00:27;;;;;;;6.72;2.13;;;22.00;55.70;;;;;;4954882;28;87631;-63
2024/03/19 11:02:59;;;;;;;10.50;2.95;;;22.10;55.90;;;;;;4952840;28;87643;-64
2024/03/19 11:05:28;;;;;;;6.90;2.53;;;22.10;55.90;;;;;;4954028;28;88642;-63
2024/03/19 11:07:56;;;;;;;10.02;2.78;;;22.10;55.90;;;;;;4949515;28;87380;-63
2024/03/19 11:10:37;;;;;;;7.63;2.20;;;22.20;56.10;;;;;;4949451;28;87324;-64
2024/03/19 11:13:08;;;;;;;8.77;2.42;;;22.10;56.30;;;;;;4954232;28;87216;-64
2024/03/19 11:15:35;;;;;;;7.68;2.88;;;22.10;56.40;;;;;;4955103;28;89096;-64
2024/03/19 11:18:13;;;;;;;8.93;2.80;;;22.10;56.20;;;;;;4953866;28;87827;-64
2024/03/19 11:20:51;;;;;;;9.65;2.83;;;22.10;56.10;;;;;;4964747;28;88799;-63
2024/03/19 11:23:25;;;;;;;7.72;2.35;;;22.10;56.40;;;;;;4956395;28;88170;-71
2024/03/19 11:25:54;;;;;;;9.98;2.40;;;22.10;56.50;;;;;;4950336;28;87394;-68
2024/03/19 11:28:30;;;;;;;8.43;2.33;;;22.20;56.70;;;;;;4953152;28;87954;-69
2024/03/19 11:30:58;;;;;;;7.78;2.80;;;22.20;56.70;;;;;;4951295;28;87268;-68
2024/03/19 11:33:25;;;;;;;8.73;2.72;;;22.20;56.90;;;;;;4938582;28;87585;-68
2024/03/19 11:35:53;;;;;;;8.93;2.45;;;22.30;57.00;;;;;;4953015;28;88653;-69
2024/03/19 11:38:20;;;;;;;6.03;1.98;;;22.20;56.90;;;;;;4944358;28;88496;-70
2024/03/19 11:40:47;;;;;;;6.32;2.30;;;22.30;56.50;;;;;;4956269;28;87326;-68
2024/03/19 11:43:14;;;;;;;5.90;2.05;;;22.30;56.20;;;;;;4957316;28;87329;-67
2024/03/19 11:45:44;;;;;;;7.57;2.33;;;22.30;56.00;;;;;;4954028;28;89574;-69
2024/03/19 11:48:22;;;;;;;5.88;2.60;;;22.30;56.10;;;;;;4953037;28;88060;-68
2024/03/19 11:50:57;;;;;;;5.57;1.77;;;22.30;56.10;;;;;;4947045;28;87155;-68
2024/03/19 11:53:24;;;;;;;6.30;2.30;;;22.30;56.30;;;;;;4968472;28;89135;-69
2024/03/19 11:55:52;;;;;;;4.60;2.05;;;22.30;56.30;;;;;;4952637;28;89648;-68
2024/03/19 11:58:18;;;;;;;5.18;2.00;;;22.30;56.30;;;;;;4952776;28;87888;-68
2024/03/19 12:00:44;;;;;;;5.88;2.15;;;22.40;56.20;;;;;;4955312;28;87294;-68
2024/03/19 12:03:14;;;;;;;8.25;2.55;;;22.30;56.20;;;;;;4952881;28;87341;-66
2024/03/19 12:05:45;;;;;;;6.32;2.15;;;22.30;56.20;;;;;;4954522;28;88119;-65
2024/03/19 12:08:10;;;;;;;4.25;2.03;;;22.30;55.90;;;;;;4953410;28;87880;-65
2024/03/19 12:10:36;;;;;;;6.65;2.05;;;22.30;55.90;;;;;;4948945;28;88100;-65
2024/03/19 12:13:03;;;;;;;8.77;2.15;;;22.30;55.60;;;;;;4951429;28;88130;-68
2024/03/19 12:15:30;;;;;;;7.60;2.53;;;22.30;55.50;;;;;;4951840;28;89411;-65
2024/03/19 12:17:58;;;;;;;4.95;2.13;;;22.30;55.70;;;;;;4953670;28;87807;-67
2024/03/19 12:20:25;;;;;;;7.38;2.40;;;22.30;55.50;;;;;;4954110;28;87816;-64
2024/03/19 12:22:52;;;;;;;4.93;2.20;;;22.40;55.80;;;;;;4955338;28;87913;-65
2024/03/19 12:25:23;;;;;;;8.60;2.40;;;22.40;55.80;;;;;;4954101;28;88138;-64
2024/03/19 12:27:51;;;;;;;6.93;1.83;;;22.40;56.00;;;;;;4953693;28;87875;-65
2024/03/19 12:30:19;;;;;;;5.72;1.92;;;22.40;56.20;;;;;;4953027;28;87451;-65
2024/03/19 12:32:59;;;;;;;4.57;2.05;;;22.40;56.50;;;;;;4950131;28;87322;-73
2024/03/19 12:35:26;;;;;;;6.85;2.10;;;22.40;57.40;;;;;;4948520;28;89410;-65
2024/03/19 12:37:52;;;;;;;5.13;2.78;;;22.40;57.10;;;;;;4950090;28;91792;-63
2024/03/19 12:40:18;;;;;;;9.18;3.05;;;22.40;57.70;;;;;;4952116;28;87363;-66
2024/03/19 12:42:47;;;;;;;5.97;2.42;;;22.40;57.90;;;;;;4952477;28;87023;-70
2024/03/19 12:45:14;;;;;;;6.80;3.03;;;22.40;58.10;;;;;;4957917;28;90956;-67
2024/03/19 12:47:43;;;;;;;6.50;2.63;;;22.40;58.20;;;;;;4952619;28;87894;-69